sensor_id;sensor_type;location;lat;lon;timestamp;P1;durP1;ratioP1;P2;durP2;ratioP2
28028;SDS011;15345;59.364;18.016;2022-12-18T00:01:20;32.53;;;15.18;;
28028;SDS011;15345;59.364;18.016;2022-12-18T00:02:42;34.78;;;15.30;;
28028;SDS011;15345;59.364;18.016;2022-12-18T00:04:06;38.97;;;15.70;;
28028;SDS011;15345;59.364;18.016;2022-12-18T00:05:28;36.72;;;17.45;;
28028;SDS011;15345;59.364;18.016;2022-12-18T00:06:47;31.98;;;15.55;;
28028;SDS011;15345;59.364;18.016;2022-12-18T00:08:07;30.48;;;16.10;;
28028;SDS011;15345;59.364;18.016;2022-12-18T00:09:25;34.97;;;16.23;;
28028;SDS011;15345;59.364;18.016;2022-12-18T00:10:44;34.03;;;16.17;;
28028;SDS011;15345;59.364;18.016;2022-12-18T00:12:03;36.13;;;15.95;;
28028;SDS011;15345;59.364;18.016;2022-12-18T00:13:22;35.92;;;17.95;;
28028;SDS011;15345;59.364;18.016;2022-12-18T00:14:50;41.13;;;17.92;;
28028;SDS011;15345;59.364;18.016;2022-12-18T00:16:12;32.63;;;15.30;;
28028;SDS011;15345;59.364;18.016;2022-12-18T00:17:37;31.85;;;15.65;;
28028;SDS011;15345;59.364;18.016;2022-12-18T00:18:59;37.10;;;16.40;;
28028;SDS011;15345;59.364;18.016;2022-12-18T00:20:18;31.90;;;15.85;;
28028;SDS011;15345;59.364;18.016;2022-12-18T00:21:44;31.35;;;14.95;;
28028;SDS011;15345;59.364;18.016;2022-12-18T00:23:03;31.88;;;15.93;;
28028;SDS011;15345;59.364;18.016;2022-12-18T00:24:22;34.17;;;16.50;;
28028;SDS011;15345;59.364;18.016;2022-12-18T00:25:41;37.42;;;17.05;;
28028;SDS011;15345;59.364;18.016;2022-12-18T00:27:03;29.63;;;14.82;;
28028;SDS011;15345;59.364;18.016;2022-12-18T00:28:22;32.92;;;16.92;;
28028;SDS011;15345;59.364;18.016;2022-12-18T00:29:41;32.85;;;15.48;;
28028;SDS011;15345;59.364;18.016;2022-12-18T00:31:01;29.38;;;15.50;;
28028;SDS011;15345;59.364;18.016;2022-12-18T00:32:20;30.45;;;14.18;;
28028;SDS011;15345;59.364;18.016;2022-12-18T00:33:39;32.80;;;14.55;;
28028;SDS011;15345;59.364;18.016;2022-12-18T00:34:57;23.42;;;12.05;;
28028;SDS011;15345;59.364;18.016;2022-12-18T00:36:18;31.42;;;14.57;;
28028;SDS011;15345;59.364;18.016;2022-12-18T00:37:40;27.13;;;14.40;;
28028;SDS011;15345;59.364;18.016;2022-12-18T00:38:59;27.75;;;14.77;;
28028;SDS011;15345;59.364;18.016;2022-12-18T00:40:18;34.90;;;14.80;;
28028;SDS011;15345;59.364;18.016;2022-12-18T00:41:37;31.30;;;16.65;;
28028;SDS011;15345;59.364;18.016;2022-12-18T00:43:15;28.52;;;13.82;;
28028;SDS011;15345;59.364;18.016;2022-12-18T00:44:39;32.67;;;14.30;;
28028;SDS011;15345;59.364;18.016;2022-12-18T00:45:58;28.40;;;14.00;;
28028;SDS011;15345;59.364;18.016;2022-12-18T00:47:17;30.25;;;14.27;;
28028;SDS011;15345;59.364;18.016;2022-12-18T00:48:37;33.20;;;15.07;;
28028;SDS011;15345;59.364;18.016;2022-12-18T00:49:56;26.23;;;14.65;;
28028;SDS011;15345;59.364;18.016;2022-12-18T00:51:18;28.73;;;15.60;;
28028;SDS011;15345;59.364;18.016;2022-12-18T00:52:40;31.33;;;16.23;;
28028;SDS011;15345;59.364;18.016;2022-12-18T00:53:59;31.07;;;14.90;;
28028;SDS011;15345;59.364;18.016;2022-12-18T00:55:18;27.95;;;13.30;;
28028;SDS011;15345;59.364;18.016;2022-12-18T00:56:37;27.33;;;13.93;;
28028;SDS011;15345;59.364;18.016;2022-12-18T00:57:57;27.52;;;13.27;;
28028;SDS011;15345;59.364;18.016;2022-12-18T00:59:17;31.60;;;15.90;;
28028;SDS011;15345;59.364;18.016;2022-12-18T01:00:36;29.95;;;14.20;;
28028;SDS011;15345;59.364;18.016;2022-12-18T01:01:54;27.13;;;13.00;;
28028;SDS011;15345;59.364;18.016;2022-12-18T01:03:13;30.95;;;15.55;;
28028;SDS011;15345;59.364;18.016;2022-12-18T01:04:33;27.77;;;14.82;;
28028;SDS011;15345;59.364;18.016;2022-12-18T01:05:51;30.70;;;15.32;;
28028;SDS011;15345;59.364;18.016;2022-12-18T01:07:10;30.20;;;13.43;;
28028;SDS011;15345;59.364;18.016;2022-12-18T01:08:29;31.65;;;15.45;;
28028;SDS011;15345;59.364;18.016;2022-12-18T01:09:48;29.27;;;14.07;;
28028;SDS011;15345;59.364;18.016;2022-12-18T01:11:07;32.53;;;15.82;;
28028;SDS011;15345;59.364;18.016;2022-12-18T01:12:26;31.10;;;16.27;;
28028;SDS011;15345;59.364;18.016;2022-12-18T01:13:45;38.70;;;17.10;;
28028;SDS011;15345;59.364;18.016;2022-12-18T01:15:04;30.90;;;15.43;;
28028;SDS011;15345;59.364;18.016;2022-12-18T01:16:24;28.98;;;15.45;;
28028;SDS011;15345;59.364;18.016;2022-12-18T01:17:42;28.02;;;14.38;;
28028;SDS011;15345;59.364;18.016;2022-12-18T01:19:01;27.60;;;12.98;;
28028;SDS011;15345;59.364;18.016;2022-12-18T01:20:20;31.38;;;14.93;;
28028;SDS011;15345;59.364;18.016;2022-12-18T01:21:39;27.25;;;13.75;;
28028;SDS011;15345;59.364;18.016;2022-12-18T01:22:58;31.77;;;14.60;;
28028;SDS011;15345;59.364;18.016;2022-12-18T01:24:17;29.52;;;13.20;;
28028;SDS011;15345;59.364;18.016;2022-12-18T01:25:36;27.23;;;14.10;;
28028;SDS011;15345;59.364;18.016;2022-12-18T01:26:55;28.02;;;14.50;;
28028;SDS011;15345;59.364;18.016;2022-12-18T01:28:16;24.83;;;13.88;;
28028;SDS011;15345;59.364;18.016;2022-12-18T01:29:34;29.75;;;15.02;;
28028;SDS011;15345;59.364;18.016;2022-12-18T01:30:53;33.67;;;15.32;;
28028;SDS011;15345;59.364;18.016;2022-12-18T01:32:12;29.45;;;15.25;;
28028;SDS011;15345;59.364;18.016;2022-12-18T01:33:31;33.25;;;14.75;;
28028;SDS011;15345;59.364;18.016;2022-12-18T01:34:50;30.67;;;15.32;;
28028;SDS011;15345;59.364;18.016;2022-12-18T01:36:14;29.77;;;15.02;;
28028;SDS011;15345;59.364;18.016;2022-12-18T01:37:33;31.00;;;15.40;;
28028;SDS011;15345;59.364;18.016;2022-12-18T01:38:52;27.20;;;13.45;;
28028;SDS011;15345;59.364;18.016;2022-12-18T01:40:11;27.52;;;15.32;;
28028;SDS011;15345;59.364;18.016;2022-12-18T01:41:31;26.80;;;14.77;;
28028;SDS011;15345;59.364;18.016;2022-12-18T01:43:10;34.20;;;14.98;;
28028;SDS011;15345;59.364;18.016;2022-12-18T01:44:47;27.88;;;15.55;;
28028;SDS011;15345;59.364;18.016;2022-12-18T01:46:09;25.83;;;14.93;;
28028;SDS011;15345;59.364;18.016;2022-12-18T01:47:39;25.17;;;12.27;;
28028;SDS011;15345;59.364;18.016;2022-12-18T01:49:00;31.10;;;15.00;;
28028;SDS011;15345;59.364;18.016;2022-12-18T01:50:21;34.40;;;15.45;;
28028;SDS011;15345;59.364;18.016;2022-12-18T01:51:41;30.30;;;15.30;;
28028;SDS011;15345;59.364;18.016;2022-12-18T01:53:07;29.33;;;14.30;;
28028;SDS011;15345;59.364;18.016;2022-12-18T01:54:28;30.70;;;14.90;;
28028;SDS011;15345;59.364;18.016;2022-12-18T01:55:51;29.63;;;14.25;;
28028;SDS011;15345;59.364;18.016;2022-12-18T01:57:11;29.45;;;14.90;;
28028;SDS011;15345;59.364;18.016;2022-12-18T01:59:56;28.73;;;14.80;;
28028;SDS011;15345;59.364;18.016;2022-12-18T02:01:16;37.95;;;15.63;;
28028;SDS011;15345;59.364;18.016;2022-12-18T02:02:35;31.88;;;14.63;;
28028;SDS011;15345;59.364;18.016;2022-12-18T02:03:54;31.58;;;15.73;;
28028;SDS011;15345;59.364;18.016;2022-12-18T02:05:18;30.85;;;13.10;;
28028;SDS011;15345;59.364;18.016;2022-12-18T02:06:39;27.77;;;14.43;;
28028;SDS011;15345;59.364;18.016;2022-12-18T02:09:54;29.02;;;15.13;;
28028;SDS011;15345;59.364;18.016;2022-12-18T02:12:54;26.20;;;13.38;;
28028;SDS011;15345;59.364;18.016;2022-12-18T02:17:07;26.63;;;13.35;;
28028;SDS011;15345;59.364;18.016;2022-12-18T02:18:48;29.92;;;14.30;;
28028;SDS011;15345;59.364;18.016;2022-12-18T02:20:13;30.08;;;14.18;;
28028;SDS011;15345;59.364;18.016;2022-12-18T02:26:05;29.13;;;13.88;;
28028;SDS011;15345;59.364;18.016;2022-12-18T02:27:25;27.83;;;13.60;;
28028;SDS011;15345;59.364;18.016;2022-12-18T02:28:52;24.90;;;13.68;;
28028;SDS011;15345;59.364;18.016;2022-12-18T02:30:12;25.73;;;14.32;;
28028;SDS011;15345;59.364;18.016;2022-12-18T02:31:33;26.55;;;14.45;;
28028;SDS011;15345;59.364;18.016;2022-12-18T02:32:54;27.77;;;13.88;;
28028;SDS011;15345;59.364;18.016;2022-12-18T02:34:13;27.73;;;14.60;;
28028;SDS011;15345;59.364;18.016;2022-12-18T02:35:32;25.30;;;13.88;;
28028;SDS011;15345;59.364;18.016;2022-12-18T02:36:52;26.77;;;13.45;;
28028;SDS011;15345;59.364;18.016;2022-12-18T02:38:12;25.77;;;13.68;;
28028;SDS011;15345;59.364;18.016;2022-12-18T02:39:32;27.30;;;14.30;;
28028;SDS011;15345;59.364;18.016;2022-12-18T02:40:51;26.35;;;13.27;;
28028;SDS011;15345;59.364;18.016;2022-12-18T02:42:12;26.60;;;13.57;;
28028;SDS011;15345;59.364;18.016;2022-12-18T02:43:31;25.50;;;13.25;;
28028;SDS011;15345;59.364;18.016;2022-12-18T02:44:50;30.50;;;14.48;;
28028;SDS011;15345;59.364;18.016;2022-12-18T02:47:45;24.33;;;13.20;;
28028;SDS011;15345;59.364;18.016;2022-12-18T02:50:48;29.27;;;13.70;;
28028;SDS011;15345;59.364;18.016;2022-12-18T02:52:14;24.40;;;13.90;;
28028;SDS011;15345;59.364;18.016;2022-12-18T02:53:57;24.65;;;13.77;;
28028;SDS011;15345;59.364;18.016;2022-12-18T02:55:22;24.27;;;13.38;;
28028;SDS011;15345;59.364;18.016;2022-12-18T02:56:45;28.23;;;14.35;;
28028;SDS011;15345;59.364;18.016;2022-12-18T02:59:30;24.95;;;13.57;;
28028;SDS011;15345;59.364;18.016;2022-12-18T03:01:01;22.63;;;13.88;;
28028;SDS011;15345;59.364;18.016;2022-12-18T03:02:23;25.85;;;13.57;;
28028;SDS011;15345;59.364;18.016;2022-12-18T03:04:19;28.80;;;14.32;;
28028;SDS011;15345;59.364;18.016;2022-12-18T03:05:34;22.27;;;13.60;;
28028;SDS011;15345;59.364;18.016;2022-12-18T03:06:56;32.30;;;14.95;;
28028;SDS011;15345;59.364;18.016;2022-12-18T03:08:26;25.45;;;13.45;;
28028;SDS011;15345;59.364;18.016;2022-12-18T03:09:46;27.55;;;13.32;;
28028;SDS011;15345;59.364;18.016;2022-12-18T03:11:10;27.77;;;15.90;;
28028;SDS011;15345;59.364;18.016;2022-12-18T03:13:49;28.25;;;12.55;;
28028;SDS011;15345;59.364;18.016;2022-12-18T03:15:11;30.30;;;13.88;;
28028;SDS011;15345;59.364;18.016;2022-12-18T03:16:31;25.63;;;12.93;;
28028;SDS011;15345;59.364;18.016;2022-12-18T03:17:52;24.30;;;13.15;;
28028;SDS011;15345;59.364;18.016;2022-12-18T03:19:15;25.17;;;13.60;;
28028;SDS011;15345;59.364;18.016;2022-12-18T03:20:35;27.45;;;12.57;;
28028;SDS011;15345;59.364;18.016;2022-12-18T03:21:56;23.27;;;12.77;;
28028;SDS011;15345;59.364;18.016;2022-12-18T03:23:17;20.15;;;12.18;;
28028;SDS011;15345;59.364;18.016;2022-12-18T03:24:36;23.40;;;12.55;;
28028;SDS011;15345;59.364;18.016;2022-12-18T03:25:58;18.85;;;11.63;;
28028;SDS011;15345;59.364;18.016;2022-12-18T03:27:19;21.35;;;12.75;;
28028;SDS011;15345;59.364;18.016;2022-12-18T03:28:40;28.52;;;13.18;;
28028;SDS011;15345;59.364;18.016;2022-12-18T03:30:03;22.27;;;12.32;;
28028;SDS011;15345;59.364;18.016;2022-12-18T03:31:26;21.50;;;12.35;;
28028;SDS011;15345;59.364;18.016;2022-12-18T03:32:48;23.38;;;12.82;;
28028;SDS011;15345;59.364;18.016;2022-12-18T03:34:14;22.73;;;10.02;;
28028;SDS011;15345;59.364;18.016;2022-12-18T03:35:36;18.85;;;11.32;;
28028;SDS011;15345;59.364;18.016;2022-12-18T03:36:56;23.08;;;12.18;;
28028;SDS011;15345;59.364;18.016;2022-12-18T03:38:15;19.60;;;11.32;;
28028;SDS011;15345;59.364;18.016;2022-12-18T03:39:34;22.85;;;12.85;;
28028;SDS011;15345;59.364;18.016;2022-12-18T03:40:59;21.38;;;12.63;;
28028;SDS011;15345;59.364;18.016;2022-12-18T03:42:28;20.42;;;11.07;;
28028;SDS011;15345;59.364;18.016;2022-12-18T03:43:49;19.25;;;10.93;;
28028;SDS011;15345;59.364;18.016;2022-12-18T03:45:12;23.05;;;12.10;;
28028;SDS011;15345;59.364;18.016;2022-12-18T03:48:15;20.38;;;11.57;;
28028;SDS011;15345;59.364;18.016;2022-12-18T03:51:18;20.40;;;11.65;;
28028;SDS011;15345;59.364;18.016;2022-12-18T03:54:20;18.95;;;11.45;;
28028;SDS011;15345;59.364;18.016;2022-12-18T03:55:39;22.38;;;11.20;;
28028;SDS011;15345;59.364;18.016;2022-12-18T03:57:05;16.45;;;10.40;;
28028;SDS011;15345;59.364;18.016;2022-12-18T03:58:25;21.55;;;11.73;;
28028;SDS011;15345;59.364;18.016;2022-12-18T03:59:45;20.67;;;11.38;;
28028;SDS011;15345;59.364;18.016;2022-12-18T04:01:05;19.83;;;12.02;;
28028;SDS011;15345;59.364;18.016;2022-12-18T04:02:25;21.30;;;11.75;;
28028;SDS011;15345;59.364;18.016;2022-12-18T04:03:44;24.15;;;12.23;;
28028;SDS011;15345;59.364;18.016;2022-12-18T04:05:05;21.15;;;11.73;;
28028;SDS011;15345;59.364;18.016;2022-12-18T04:06:26;18.15;;;11.68;;
28028;SDS011;15345;59.364;18.016;2022-12-18T04:07:46;21.30;;;11.18;;
28028;SDS011;15345;59.364;18.016;2022-12-18T04:09:05;19.98;;;11.57;;
28028;SDS011;15345;59.364;18.016;2022-12-18T04:10:25;22.20;;;11.52;;
28028;SDS011;15345;59.364;18.016;2022-12-18T04:11:44;21.42;;;11.45;;
28028;SDS011;15345;59.364;18.016;2022-12-18T04:13:04;18.75;;;11.50;;
28028;SDS011;15345;59.364;18.016;2022-12-18T04:14:23;22.05;;;11.73;;
28028;SDS011;15345;59.364;18.016;2022-12-18T04:15:45;20.20;;;11.38;;
28028;SDS011;15345;59.364;18.016;2022-12-18T04:17:04;20.13;;;11.80;;
28028;SDS011;15345;59.364;18.016;2022-12-18T04:18:23;23.13;;;11.35;;
28028;SDS011;15345;59.364;18.016;2022-12-18T04:19:42;25.02;;;12.90;;
28028;SDS011;15345;59.364;18.016;2022-12-18T04:21:00;22.17;;;11.82;;
28028;SDS011;15345;59.364;18.016;2022-12-18T04:22:20;19.90;;;10.65;;
28028;SDS011;15345;59.364;18.016;2022-12-18T04:23:39;15.55;;;9.23;;
28028;SDS011;15345;59.364;18.016;2022-12-18T04:24:58;22.13;;;12.15;;
28028;SDS011;15345;59.364;18.016;2022-12-18T04:26:17;21.15;;;11.90;;
28028;SDS011;15345;59.364;18.016;2022-12-18T04:27:35;22.40;;;12.07;;
28028;SDS011;15345;59.364;18.016;2022-12-18T04:28:54;18.50;;;11.85;;
28028;SDS011;15345;59.364;18.016;2022-12-18T04:30:13;16.05;;;10.57;;
28028;SDS011;15345;59.364;18.016;2022-12-18T04:31:32;26.92;;;12.30;;
28028;SDS011;15345;59.364;18.016;2022-12-18T04:32:51;20.70;;;11.57;;
28028;SDS011;15345;59.364;18.016;2022-12-18T04:34:10;21.05;;;10.90;;
28028;SDS011;15345;59.364;18.016;2022-12-18T04:35:29;20.38;;;11.82;;
28028;SDS011;15345;59.364;18.016;2022-12-18T04:36:48;17.55;;;11.82;;
28028;SDS011;15345;59.364;18.016;2022-12-18T04:38:07;25.05;;;12.48;;
28028;SDS011;15345;59.364;18.016;2022-12-18T04:39:30;22.00;;;10.80;;
28028;SDS011;15345;59.364;18.016;2022-12-18T04:40:48;23.40;;;12.70;;
28028;SDS011;15345;59.364;18.016;2022-12-18T04:42:07;18.58;;;11.50;;
28028;SDS011;15345;59.364;18.016;2022-12-18T04:43:26;20.50;;;11.65;;
28028;SDS011;15345;59.364;18.016;2022-12-18T04:44:45;25.90;;;12.90;;
28028;SDS011;15345;59.364;18.016;2022-12-18T04:46:07;20.20;;;11.15;;
28028;SDS011;15345;59.364;18.016;2022-12-18T04:47:26;16.73;;;11.25;;
28028;SDS011;15345;59.364;18.016;2022-12-18T04:48:45;17.75;;;10.98;;
28028;SDS011;15345;59.364;18.016;2022-12-18T04:50:04;21.23;;;10.77;;
28028;SDS011;15345;59.364;18.016;2022-12-18T04:51:23;18.75;;;11.30;;
28028;SDS011;15345;59.364;18.016;2022-12-18T04:52:42;21.30;;;10.98;;
28028;SDS011;15345;59.364;18.016;2022-12-18T04:54:01;17.90;;;10.63;;
28028;SDS011;15345;59.364;18.016;2022-12-18T04:55:21;19.88;;;10.75;;
28028;SDS011;15345;59.364;18.016;2022-12-18T04:56:40;19.13;;;10.70;;
28028;SDS011;15345;59.364;18.016;2022-12-18T04:57:58;17.85;;;10.38;;
28028;SDS011;15345;59.364;18.016;2022-12-18T04:59:17;20.70;;;10.35;;
28028;SDS011;15345;59.364;18.016;2022-12-18T05:00:36;21.08;;;10.65;;
28028;SDS011;15345;59.364;18.016;2022-12-18T05:01:55;19.10;;;11.23;;
28028;SDS011;15345;59.364;18.016;2022-12-18T05:03:14;20.58;;;11.40;;
28028;SDS011;15345;59.364;18.016;2022-12-18T05:04:33;18.45;;;10.40;;
28028;SDS011;15345;59.364;18.016;2022-12-18T05:05:52;18.73;;;10.25;;
28028;SDS011;15345;59.364;18.016;2022-12-18T05:07:11;17.40;;;10.45;;
28028;SDS011;15345;59.364;18.016;2022-12-18T05:08:29;21.27;;;11.50;;
28028;SDS011;15345;59.364;18.016;2022-12-18T05:09:48;16.55;;;9.98;;
28028;SDS011;15345;59.364;18.016;2022-12-18T05:11:09;17.23;;;10.80;;
28028;SDS011;15345;59.364;18.016;2022-12-18T05:12:28;20.38;;;11.07;;
28028;SDS011;15345;59.364;18.016;2022-12-18T05:13:48;17.17;;;10.30;;
28028;SDS011;15345;59.364;18.016;2022-12-18T05:15:07;15.25;;;10.30;;
28028;SDS011;15345;59.364;18.016;2022-12-18T05:16:26;17.75;;;9.98;;
28028;SDS011;15345;59.364;18.016;2022-12-18T05:17:45;19.27;;;11.27;;
28028;SDS011;15345;59.364;18.016;2022-12-18T05:19:04;18.65;;;9.98;;
28028;SDS011;15345;59.364;18.016;2022-12-18T05:20:24;17.02;;;10.52;;
28028;SDS011;15345;59.364;18.016;2022-12-18T05:21:43;19.08;;;12.00;;
28028;SDS011;15345;59.364;18.016;2022-12-18T05:23:02;21.02;;;10.40;;
28028;SDS011;15345;59.364;18.016;2022-12-18T05:24:20;18.90;;;10.93;;
28028;SDS011;15345;59.364;18.016;2022-12-18T05:25:39;20.67;;;10.73;;
28028;SDS011;15345;59.364;18.016;2022-12-18T05:26:58;15.15;;;9.77;;
28028;SDS011;15345;59.364;18.016;2022-12-18T05:28:17;19.85;;;11.00;;
28028;SDS011;15345;59.364;18.016;2022-12-18T05:29:36;21.52;;;10.73;;
28028;SDS011;15345;59.364;18.016;2022-12-18T05:30:56;19.95;;;10.43;;
28028;SDS011;15345;59.364;18.016;2022-12-18T05:32:15;17.63;;;10.63;;
28028;SDS011;15345;59.364;18.016;2022-12-18T05:33:34;22.92;;;10.63;;
28028;SDS011;15345;59.364;18.016;2022-12-18T05:34:53;18.55;;;11.00;;
28028;SDS011;15345;59.364;18.016;2022-12-18T05:36:12;17.88;;;9.98;;
28028;SDS011;15345;59.364;18.016;2022-12-18T05:37:32;13.40;;;9.73;;
28028;SDS011;15345;59.364;18.016;2022-12-18T05:38:50;21.38;;;10.65;;
28028;SDS011;15345;59.364;18.016;2022-12-18T05:40:10;16.90;;;10.23;;
28028;SDS011;15345;59.364;18.016;2022-12-18T05:41:30;18.60;;;10.45;;
28028;SDS011;15345;59.364;18.016;2022-12-18T05:42:48;20.55;;;11.02;;
28028;SDS011;15345;59.364;18.016;2022-12-18T05:44:07;17.35;;;10.13;;
28028;SDS011;15345;59.364;18.016;2022-12-18T05:45:26;19.75;;;10.98;;
28028;SDS011;15345;59.364;18.016;2022-12-18T05:46:45;15.43;;;10.15;;
28028;SDS011;15345;59.364;18.016;2022-12-18T05:48:05;19.75;;;10.57;;
28028;SDS011;15345;59.364;18.016;2022-12-18T05:49:24;17.45;;;10.52;;
28028;SDS011;15345;59.364;18.016;2022-12-18T05:50:46;18.45;;;10.48;;
28028;SDS011;15345;59.364;18.016;2022-12-18T05:52:05;17.52;;;10.38;;
28028;SDS011;15345;59.364;18.016;2022-12-18T05:53:24;18.58;;;10.07;;
28028;SDS011;15345;59.364;18.016;2022-12-18T05:54:43;15.93;;;10.05;;
28028;SDS011;15345;59.364;18.016;2022-12-18T05:56:03;20.27;;;10.77;;
28028;SDS011;15345;59.364;18.016;2022-12-18T05:57:22;18.40;;;10.65;;
28028;SDS011;15345;59.364;18.016;2022-12-18T05:58:41;20.70;;;11.27;;
28028;SDS011;15345;59.364;18.016;2022-12-18T06:00:01;16.50;;;10.35;;
28028;SDS011;15345;59.364;18.016;2022-12-18T06:01:24;20.45;;;10.95;;
28028;SDS011;15345;59.364;18.016;2022-12-18T06:02:46;13.70;;;8.73;;
28028;SDS011;15345;59.364;18.016;2022-12-18T06:04:05;15.32;;;9.55;;
28028;SDS011;15345;59.364;18.016;2022-12-18T06:05:24;14.57;;;8.52;;
28028;SDS011;15345;59.364;18.016;2022-12-18T06:06:43;14.05;;;8.98;;
28028;SDS011;15345;59.364;18.016;2022-12-18T06:08:02;16.02;;;8.80;;
28028;SDS011;15345;59.364;18.016;2022-12-18T06:09:21;15.73;;;9.82;;
28028;SDS011;15345;59.364;18.016;2022-12-18T06:10:40;19.77;;;10.10;;
28028;SDS011;15345;59.364;18.016;2022-12-18T06:11:59;19.13;;;11.57;;
28028;SDS011;15345;59.364;18.016;2022-12-18T06:13:18;18.52;;;8.93;;
28028;SDS011;15345;59.364;18.016;2022-12-18T06:14:37;21.80;;;10.38;;
28028;SDS011;15345;59.364;18.016;2022-12-18T06:15:57;15.05;;;8.88;;
28028;SDS011;15345;59.364;18.016;2022-12-18T06:17:15;21.05;;;10.20;;
28028;SDS011;15345;59.364;18.016;2022-12-18T06:18:34;18.60;;;9.23;;
28028;SDS011;15345;59.364;18.016;2022-12-18T06:19:53;14.80;;;9.23;;
28028;SDS011;15345;59.364;18.016;2022-12-18T06:21:12;16.60;;;9.95;;
28028;SDS011;15345;59.364;18.016;2022-12-18T06:22:31;14.27;;;8.48;;
28028;SDS011;15345;59.364;18.016;2022-12-18T06:23:50;18.00;;;9.77;;
28028;SDS011;15345;59.364;18.016;2022-12-18T06:25:10;16.58;;;9.05;;
28028;SDS011;15345;59.364;18.016;2022-12-18T06:26:32;15.23;;;9.38;;
28028;SDS011;15345;59.364;18.016;2022-12-18T06:27:51;16.33;;;9.55;;
28028;SDS011;15345;59.364;18.016;2022-12-18T06:29:09;19.77;;;10.30;;
28028;SDS011;15345;59.364;18.016;2022-12-18T06:30:28;16.05;;;10.00;;
28028;SDS011;15345;59.364;18.016;2022-12-18T06:31:47;16.50;;;9.13;;
28028;SDS011;15345;59.364;18.016;2022-12-18T06:33:06;14.40;;;9.32;;
28028;SDS011;15345;59.364;18.016;2022-12-18T06:34:25;16.35;;;9.57;;
28028;SDS011;15345;59.364;18.016;2022-12-18T06:35:44;15.65;;;9.45;;
28028;SDS011;15345;59.364;18.016;2022-12-18T06:37:03;16.88;;;8.95;;
28028;SDS011;15345;59.364;18.016;2022-12-18T06:38:22;16.40;;;9.75;;
28028;SDS011;15345;59.364;18.016;2022-12-18T06:39:41;12.55;;;9.38;;
28028;SDS011;15345;59.364;18.016;2022-12-18T06:41:00;15.85;;;9.13;;
28028;SDS011;15345;59.364;18.016;2022-12-18T06:42:19;17.42;;;9.88;;
28028;SDS011;15345;59.364;18.016;2022-12-18T06:43:38;17.20;;;8.60;;
28028;SDS011;15345;59.364;18.016;2022-12-18T06:44:57;15.60;;;9.50;;
28028;SDS011;15345;59.364;18.016;2022-12-18T06:46:16;15.27;;;9.45;;
28028;SDS011;15345;59.364;18.016;2022-12-18T06:47:35;16.60;;;10.02;;
28028;SDS011;15345;59.364;18.016;2022-12-18T06:48:54;16.50;;;9.77;;
28028;SDS011;15345;59.364;18.016;2022-12-18T06:50:13;13.60;;;8.30;;
28028;SDS011;15345;59.364;18.016;2022-12-18T06:51:32;16.48;;;9.25;;
28028;SDS011;15345;59.364;18.016;2022-12-18T06:52:53;14.07;;;8.88;;
28028;SDS011;15345;59.364;18.016;2022-12-18T06:54:14;15.18;;;10.13;;
28028;SDS011;15345;59.364;18.016;2022-12-18T06:55:33;15.93;;;9.05;;
28028;SDS011;15345;59.364;18.016;2022-12-18T06:56:52;12.93;;;8.43;;
28028;SDS011;15345;59.364;18.016;2022-12-18T06:58:11;17.20;;;9.27;;
28028;SDS011;15345;59.364;18.016;2022-12-18T06:59:30;13.65;;;8.40;;
28028;SDS011;15345;59.364;18.016;2022-12-18T07:00:49;15.32;;;9.10;;
28028;SDS011;15345;59.364;18.016;2022-12-18T07:02:10;19.98;;;9.30;;
28028;SDS011;15345;59.364;18.016;2022-12-18T07:03:30;13.63;;;8.32;;
28028;SDS011;15345;59.364;18.016;2022-12-18T07:04:49;12.75;;;8.57;;
28028;SDS011;15345;59.364;18.016;2022-12-18T07:06:14;15.00;;;8.85;;
28028;SDS011;15345;59.364;18.016;2022-12-18T07:07:34;17.20;;;9.55;;
28028;SDS011;15345;59.364;18.016;2022-12-18T07:08:53;19.33;;;10.93;;
28028;SDS011;15345;59.364;18.016;2022-12-18T07:10:12;14.65;;;9.68;;
28028;SDS011;15345;59.364;18.016;2022-12-18T07:11:32;16.15;;;9.50;;
28028;SDS011;15345;59.364;18.016;2022-12-18T07:12:51;16.60;;;10.10;;
28028;SDS011;15345;59.364;18.016;2022-12-18T07:14:10;14.52;;;10.00;;
28028;SDS011;15345;59.364;18.016;2022-12-18T07:15:29;17.60;;;10.07;;
28028;SDS011;15345;59.364;18.016;2022-12-18T07:16:48;18.02;;;10.23;;
28028;SDS011;15345;59.364;18.016;2022-12-18T07:18:07;17.85;;;10.50;;
28028;SDS011;15345;59.364;18.016;2022-12-18T07:19:25;16.27;;;9.82;;
28028;SDS011;15345;59.364;18.016;2022-12-18T07:20:44;18.85;;;10.75;;
28028;SDS011;15345;59.364;18.016;2022-12-18T07:22:03;17.35;;;10.27;;
28028;SDS011;15345;59.364;18.016;2022-12-18T07:23:22;14.82;;;9.57;;
28028;SDS011;15345;59.364;18.016;2022-12-18T07:24:41;19.23;;;10.02;;
28028;SDS011;15345;59.364;18.016;2022-12-18T07:26:01;18.77;;;11.05;;
28028;SDS011;15345;59.364;18.016;2022-12-18T07:27:21;18.48;;;10.45;;
28028;SDS011;15345;59.364;18.016;2022-12-18T07:28:46;21.45;;;10.43;;
28028;SDS011;15345;59.364;18.016;2022-12-18T07:30:05;16.63;;;10.88;;
28028;SDS011;15345;59.364;18.016;2022-12-18T07:31:40;16.95;;;11.02;;
28028;SDS011;15345;59.364;18.016;2022-12-18T07:33:00;16.83;;;10.63;;
28028;SDS011;15345;59.364;18.016;2022-12-18T07:34:19;19.40;;;10.25;;
28028;SDS011;15345;59.364;18.016;2022-12-18T07:35:38;19.27;;;10.75;;
28028;SDS011;15345;59.364;18.016;2022-12-18T07:36:57;19.50;;;10.55;;
28028;SDS011;15345;59.364;18.016;2022-12-18T07:38:16;19.90;;;10.57;;
28028;SDS011;15345;59.364;18.016;2022-12-18T07:39:35;17.98;;;10.05;;
28028;SDS011;15345;59.364;18.016;2022-12-18T07:40:54;20.15;;;9.43;;
28028;SDS011;15345;59.364;18.016;2022-12-18T07:42:13;19.00;;;11.52;;
28028;SDS011;15345;59.364;18.016;2022-12-18T07:43:50;16.20;;;9.98;;
28028;SDS011;15345;59.364;18.016;2022-12-18T07:45:09;19.58;;;9.98;;
28028;SDS011;15345;59.364;18.016;2022-12-18T07:46:28;17.60;;;11.27;;
28028;SDS011;15345;59.364;18.016;2022-12-18T07:47:48;20.40;;;10.98;;
28028;SDS011;15345;59.364;18.016;2022-12-18T07:49:07;16.67;;;10.68;;
28028;SDS011;15345;59.364;18.016;2022-12-18T07:50:26;20.02;;;10.25;;
28028;SDS011;15345;59.364;18.016;2022-12-18T07:51:45;20.88;;;10.57;;
28028;SDS011;15345;59.364;18.016;2022-12-18T07:53:07;23.67;;;10.52;;
28028;SDS011;15345;59.364;18.016;2022-12-18T07:54:26;19.25;;;10.85;;
28028;SDS011;15345;59.364;18.016;2022-12-18T07:55:45;18.13;;;9.10;;
28028;SDS011;15345;59.364;18.016;2022-12-18T07:57:04;20.85;;;12.70;;
28028;SDS011;15345;59.364;18.016;2022-12-18T07:58:23;18.95;;;10.10;;
28028;SDS011;15345;59.364;18.016;2022-12-18T07:59:42;20.33;;;11.40;;
28028;SDS011;15345;59.364;18.016;2022-12-18T08:01:02;18.88;;;9.93;;
28028;SDS011;15345;59.364;18.016;2022-12-18T08:02:21;19.02;;;11.13;;
28028;SDS011;15345;59.364;18.016;2022-12-18T08:03:40;17.58;;;10.00;;
28028;SDS011;15345;59.364;18.016;2022-12-18T08:04:59;21.40;;;11.18;;
28028;SDS011;15345;59.364;18.016;2022-12-18T08:06:18;19.15;;;10.73;;
28028;SDS011;15345;59.364;18.016;2022-12-18T08:07:37;19.58;;;10.10;;
28028;SDS011;15345;59.364;18.016;2022-12-18T08:08:56;21.25;;;11.27;;